Chart 1
 

(A maximum of 50 rows are displayed here. Use "Export Data" to see all rows in the date range.)
Date Collected Temp WindChill
(Celcius)
WindSpeed
(km/hr)
Gust
(km/hr)
Wind Direction
(degrees)
2024-06-26 02:00 4.0 1.8 4 9 50
2024-06-26 01:00 4.2 1.8 5 10 51
2024-06-26 00:00 4.6 3.1 4 8 49
2024-06-25 23:00 5.0 4.3 3 6 52
2024-06-25 22:00 5.2 5.1 2 6 43
2024-06-25 21:00 5.7 5.8 2 5 36
2024-06-25 20:00 6.7 6.7 1 3 18
2024-06-25 19:00 8.1 8.4 0 1 293
2024-06-25 18:00 10.6 10.7 1 3 207
2024-06-25 17:00 12.5 12.2 3 7 210
2024-06-25 16:00 14.2 14.2 0 0 217
2024-06-25 15:00 14.7 13.9 4 10 201
2024-06-25 14:00 15.3 13.9 4 11 201
2024-06-25 13:00 15.1 14.0 4 10 195
2024-06-25 12:00 14.7 14.0 3 11 196
2024-06-25 11:00 14.9 13.4 4 10 227
2024-06-25 10:00 12.4 12.2 2 5 210
2024-06-25 09:00 8.6 8.3 1 3 40
2024-06-25 08:00 6.4 6.2 2 5 39
2024-06-25 07:00 5.2 5.1 2 5 42
2024-06-25 06:00 4.7 4.8 1 4 43
2024-06-25 05:00 5.3 5.3 1 3 48
2024-06-25 04:00 4.8 4.6 2 3 43
2024-06-25 03:00 4.6 4.7 1 3 63
2024-06-25 02:00 5.0 5.0 2 5 35
2024-06-25 01:00 5.3 5.3 2 5 40
2024-06-25 00:00 5.6 5.6 1 2 37
2024-06-24 23:00 6.1 6.2 1 3 59
2024-06-24 22:00 6.3 6.3 1 3 41
2024-06-24 21:00 6.7 6.7 0 1 319
2024-06-24 20:00 7.8 7.9 1 3 47
2024-06-24 19:00 9.5 9.7 0 1 57
2024-06-24 18:00 11.4 11.7 1 3 236
2024-06-24 17:00 13.2 12.9 3 8 213
2024-06-24 16:00 14.2 13.5 4 8 178
2024-06-24 15:00 15.3 13.0 5 13 210
2024-06-24 14:00 14.9 13.8 4 9 222
2024-06-24 13:00 15.2 14.0 4 9 221
2024-06-24 12:00 14.1 13.6 3 8 209
2024-06-24 11:00 14.0 12.9 4 7 225
2024-06-24 10:00 11.2 11.1 1 4 199
2024-06-24 09:00 6.9 6.5 1 2 22
2024-06-24 08:00 2.4 2.3 0 1 1
2024-06-24 07:00 2.3 2.2 1 2 46
2024-06-24 06:00 2.6 2.6 1 3 56
2024-06-24 05:00 3.0 3.1 1 2 6
2024-06-24 04:00 3.3 3.3 1 3 17
2024-06-24 03:00 3.5 3.5 0 2 45
2024-06-24 02:00 3.9 4.0 0 2 24
2024-06-24 01:00 5.0 5.1 0 1 23